createdAt,value
2023-02-04T00:08:22.445Z,8.37
2023-02-04T00:18:24.765Z,8.27
2023-02-04T00:28:26.836Z,8.38
2023-02-04T00:38:29.776Z,8.80
2023-02-04T00:48:32.211Z,8.57
2023-02-04T00:58:34.405Z,8.76
2023-02-04T01:08:38.592Z,8.13
2023-02-04T01:18:41.712Z,8.24
2023-02-04T01:28:44.182Z,8.06
2023-02-04T01:38:46.508Z,7.82
2023-02-04T01:48:48.909Z,8.31
2023-02-04T01:58:51.250Z,8.45
2023-02-04T02:08:53.680Z,7.68
2023-02-04T02:18:57.714Z,8.02
2023-02-04T02:29:00.079Z,7.75
2023-02-04T02:39:02.223Z,8.02
2023-02-04T02:49:04.643Z,7.73
2023-02-04T02:59:17.520Z,8.46
2023-02-04T03:09:20.007Z,7.56
2023-02-04T03:19:24.446Z,8.42
2023-02-04T03:29:28.446Z,8.23
2023-02-04T03:39:32.038Z,7.95
2023-02-04T03:49:35.827Z,7.95
2023-02-04T03:59:38.284Z,7.97
2023-02-04T04:09:40.618Z,7.87
2023-02-04T04:19:44.635Z,8.29
2023-02-04T04:29:46.729Z,7.76
2023-02-04T04:39:48.889Z,7.75
2023-02-04T04:49:51.000Z,8.25
2023-02-04T04:59:53.124Z,7.94
2023-02-04T05:09:55.197Z,8.15
2023-02-04T05:19:57.517Z,7.75
2023-02-04T05:30:00.769Z,8.13
2023-02-04T05:40:03.179Z,8.04
2023-02-04T05:50:06.624Z,7.93
2023-02-04T06:00:09.843Z,7.51
2023-02-04T06:10:15.173Z,7.74
2023-02-04T06:20:17.551Z,7.86
2023-02-04T06:30:19.988Z,7.92
2023-02-04T06:40:22.244Z,8.46
2023-02-04T06:50:24.431Z,8.12
2023-02-04T07:00:26.611Z,7.93
2023-02-04T07:10:28.779Z,8.57
2023-02-04T07:20:31.252Z,8.87
2023-02-04T07:30:34.049Z,8.82
2023-02-04T07:40:36.441Z,9.11
2023-02-04T07:50:39.046Z,9.08
2023-02-04T08:00:41.342Z,8.85
2023-02-04T08:10:43.528Z,8.41
2023-02-04T08:20:46.262Z,8.40
2023-02-04T08:30:49.345Z,9.13
2023-02-04T08:40:52.981Z,7.83
2023-02-04T08:50:55.698Z,8.26
2023-02-04T09:00:58.184Z,8.92
2023-02-04T09:11:01.274Z,9.12
2023-02-04T09:21:04.067Z,9.27
2023-02-04T09:31:07.390Z,9.40
2023-02-04T09:41:12.440Z,9.10
2023-02-04T09:51:18.971Z,10.25
2023-02-04T10:01:21.491Z,9.30
2023-02-04T10:11:25.918Z,9.76
2023-02-04T10:21:30.328Z,9.35
2023-02-04T10:31:38.216Z,9.46
2023-02-04T10:41:49.883Z,9.05
2023-02-04T10:51:52.856Z,10.10
2023-02-04T11:01:57.107Z,9.62
2023-02-04T11:12:00.339Z,10.20
2023-02-04T11:22:22.699Z,9.12
2023-02-04T11:32:29.885Z,9.58
2023-02-04T11:42:32.048Z,9.90
2023-02-04T11:52:36.182Z,10.13
2023-02-04T12:02:48.906Z,9.99
2023-02-04T12:12:55.874Z,10.08
2023-02-04T12:22:58.273Z,10.00
2023-02-04T12:33:00.576Z,10.20
2023-02-04T12:43:03.060Z,10.81
2023-02-04T12:53:06.412Z,9.37
2023-02-04T13:03:09.868Z,9.76
2023-02-04T13:13:12.573Z,9.87
2023-02-04T13:23:15.076Z,10.30
2023-02-04T13:43:55.786Z,10.38
2023-02-04T13:54:00.929Z,10.28
2023-02-04T14:04:04.941Z,10.41
2023-02-04T14:14:08.825Z,10.56
2023-02-04T14:24:11.306Z,10.84
2023-02-04T14:34:13.958Z,10.77
2023-02-04T14:44:21.082Z,11.46
2023-02-04T14:54:24.164Z,10.61
2023-02-04T15:04:26.957Z,10.68
2023-02-04T15:14:30.225Z,10.57
2023-02-04T15:24:32.694Z,11.29
2023-02-04T15:34:35.186Z,10.77
2023-02-04T15:44:38.629Z,10.70
2023-02-04T15:54:40.959Z,10.42
2023-02-04T16:04:45.610Z,10.68
2023-02-04T16:14:48.781Z,10.35
2023-02-04T16:24:53.095Z,10.12
2023-02-04T16:34:56.787Z,9.26
2023-02-04T16:44:59.391Z,9.64
2023-02-04T16:55:01.805Z,9.34
2023-02-04T17:05:05.555Z,9.59
2023-02-04T17:15:08.126Z,9.67
2023-02-04T17:25:10.968Z,9.56
2023-02-04T17:35:14.089Z,9.30
2023-02-04T17:45:17.848Z,9.01
2023-02-04T17:55:27.852Z,8.77
2023-02-04T18:05:31.026Z,8.80
2023-02-04T18:15:34.654Z,8.54
2023-02-04T18:25:37.191Z,8.48
2023-02-04T18:35:46.970Z,8.15
2023-02-04T18:45:49.805Z,8.06
2023-02-04T18:55:55.966Z,7.76
2023-02-04T19:06:00.249Z,7.80
2023-02-04T19:16:07.253Z,7.59
2023-02-04T19:26:43.415Z,7.36
2023-02-04T19:36:47.062Z,7.30
2023-02-04T19:46:50.098Z,7.15
2023-02-04T19:56:55.053Z,7.35
2023-02-04T20:06:58.277Z,7.56
2023-02-04T20:17:03.850Z,7.41
2023-02-04T20:27:17.041Z,7.77
2023-02-04T20:37:27.165Z,8.02
2023-02-04T20:47:30.442Z,7.80
2023-02-04T20:57:34.948Z,7.92
2023-02-04T21:07:37.849Z,7.91
2023-02-04T21:17:42.063Z,6.87
2023-02-04T21:27:44.837Z,7.45
2023-02-04T21:37:48.320Z,7.87
2023-02-04T21:47:52.848Z,7.71
2023-02-04T21:57:56.776Z,7.59
2023-02-04T22:08:00.057Z,7.95
2023-02-04T22:18:02.988Z,7.93
2023-02-04T22:28:06.231Z,7.89
2023-02-04T22:38:09.336Z,7.63
2023-02-04T22:48:13.291Z,7.95
2023-02-04T22:58:16.298Z,7.93
2023-02-04T23:08:19.520Z,7.61
2023-02-04T23:18:22.756Z,7.53
2023-02-04T23:28:27.230Z,7.33
2023-02-04T23:38:31.598Z,7.55
2023-02-04T23:48:34.790Z,7.15
2023-02-04T23:58:37.836Z,7.39
